Aurora, Ohio
Current Conditions -  °F | °C
As of 10:58 AM on Saturday 25 Oct 2014 (Local Time) from KPOV Reporting Station
Scattered Clouds Scattered Clouds  
Wind Chill: 15°   Ceiling: Unl
Heat Index: 15°   Visibility: 10mi
Dew Point:   Wind: 9mph
Humidity: 65%   Direction: 230°SW
Pressure: 29.87"   Gusts: NA
Location:  41.31°N, 81.34°W
Report Text: KPOV 251458Z AUTO 23008KT 10SM SCT050 15/08 A2987 RMK AO2 T01450080
Loading
Personal Weather Stations






























Interactive Weather Map
Tropical Storm Tracking
New forecast layout! Learn more

10-Day Weather Forecast

Advertisements
Track Severe Weather on mobile